sensor_id;sensor_type;location;lat;lon;timestamp;pressure;altitude;pressure_sealevel;temperature;humidity
44979;BME280;67464;52.438;-1.904;2023-02-15T00:01:29;101053.41;;;4.74;98.12
44979;BME280;67464;52.438;-1.904;2023-02-15T00:03:54;101054.71;;;5.25;94.29
44979;BME280;67464;52.438;-1.904;2023-02-15T00:06:20;101051.01;;;5.69;91.54
44979;BME280;67464;52.438;-1.904;2023-02-15T00:08:46;101044.89;;;5.59;89.80
44979;BME280;67464;52.438;-1.904;2023-02-15T00:11:13;101038.56;;;5.59;86.06
44979;BME280;67464;52.438;-1.904;2023-02-15T00:13:37;101036.99;;;5.77;88.77
44979;BME280;67464;52.438;-1.904;2023-02-15T00:16:03;101032.53;;;6.14;88.49
44979;BME280;67464;52.438;-1.904;2023-02-15T00:18:28;101029.07;;;5.89;82.82
44979;BME280;67464;52.438;-1.904;2023-02-15T00:20:53;101030.20;;;6.11;80.28
44979;BME280;67464;52.438;-1.904;2023-02-15T00:23:18;101026.26;;;6.02;84.32
44979;BME280;67464;52.438;-1.904;2023-02-15T00:25:44;101021.51;;;6.00;82.61
44979;BME280;67464;52.438;-1.904;2023-02-15T00:28:09;101020.78;;;6.24;79.75
44979;BME280;67464;52.438;-1.904;2023-02-15T00:30:34;101021.95;;;6.53;78.94
44979;BME280;67464;52.438;-1.904;2023-02-15T00:33:00;101019.77;;;6.47;76.14
44979;BME280;67464;52.438;-1.904;2023-02-15T00:35:26;101015.30;;;6.63;76.47
44979;BME280;67464;52.438;-1.904;2023-02-15T00:37:51;101015.34;;;6.64;78.01
44979;BME280;67464;52.438;-1.904;2023-02-15T00:40:17;101010.41;;;6.51;77.21
44979;BME280;67464;52.438;-1.904;2023-02-15T00:42:42;101005.22;;;6.11;76.22
44979;BME280;67464;52.438;-1.904;2023-02-15T00:45:08;101000.88;;;5.98;79.39
44979;BME280;67464;52.438;-1.904;2023-02-15T00:47:33;100997.75;;;6.36;75.63
44979;BME280;67464;52.438;-1.904;2023-02-15T00:49:58;100995.27;;;6.59;71.39
44979;BME280;67464;52.438;-1.904;2023-02-15T00:52:23;100991.89;;;6.36;74.85
44979;BME280;67464;52.438;-1.904;2023-02-15T00:54:49;100992.34;;;6.34;72.27
44979;BME280;67464;52.438;-1.904;2023-02-15T00:57:15;100985.67;;;6.47;70.93
44979;BME280;67464;52.438;-1.904;2023-02-15T00:59:40;100981.63;;;6.50;71.00
44979;BME280;67464;52.438;-1.904;2023-02-15T01:02:06;100981.57;;;6.44;72.48
44979;BME280;67464;52.438;-1.904;2023-02-15T01:04:32;100974.27;;;6.60;72.40
44979;BME280;67464;52.438;-1.904;2023-02-15T01:06:57;100965.17;;;5.65;74.34
44979;BME280;67464;52.438;-1.904;2023-02-15T01:09:23;100961.92;;;4.80;80.78
44979;BME280;67464;52.438;-1.904;2023-02-15T01:11:48;100960.39;;;4.47;85.88
44979;BME280;67464;52.438;-1.904;2023-02-15T01:14:13;100955.54;;;5.15;83.73
44979;BME280;67464;52.438;-1.904;2023-02-15T01:16:39;100951.19;;;5.48;80.78
44979;BME280;67464;52.438;-1.904;2023-02-15T01:19:04;100946.97;;;5.89;77.38
44979;BME280;67464;52.438;-1.904;2023-02-15T01:21:30;100948.60;;;5.77;77.36
44979;BME280;67464;52.438;-1.904;2023-02-15T01:23:56;100946.11;;;6.24;77.92
44979;BME280;67464;52.438;-1.904;2023-02-15T01:26:21;100941.26;;;6.24;74.34
44979;BME280;67464;52.438;-1.904;2023-02-15T01:28:47;100940.88;;;5.79;74.48
44979;BME280;67464;52.438;-1.904;2023-02-15T01:31:14;100941.37;;;6.14;78.38
44979;BME280;67464;52.438;-1.904;2023-02-15T01:33:38;100940.71;;;6.18;78.17
44979;BME280;67464;52.438;-1.904;2023-02-15T01:36:03;100936.30;;;6.50;74.59
44979;BME280;67464;52.438;-1.904;2023-02-15T01:38:28;100933.83;;;6.76;71.13
44979;BME280;67464;52.438;-1.904;2023-02-15T01:40:54;100933.23;;;6.43;73.29
44979;BME280;67464;52.438;-1.904;2023-02-15T01:43:18;100933.93;;;6.43;71.78
44979;BME280;67464;52.438;-1.904;2023-02-15T01:45:45;100931.98;;;6.86;71.41
44979;BME280;67464;52.438;-1.904;2023-02-15T01:48:19;100927.89;;;6.73;69.28
44979;BME280;67464;52.438;-1.904;2023-02-15T01:50:38;100926.16;;;6.45;72.97
44979;BME280;67464;52.438;-1.904;2023-02-15T01:53:06;100924.72;;;6.52;71.13
44979;BME280;67464;52.438;-1.904;2023-02-15T01:55:30;100919.82;;;5.62;72.72
44979;BME280;67464;52.438;-1.904;2023-02-15T01:57:51;100920.79;;;5.13;75.81
44979;BME280;67464;52.438;-1.904;2023-02-15T02:00:18;100919.85;;;5.07;79.42
44979;BME280;67464;52.438;-1.904;2023-02-15T02:02:45;100918.17;;;5.65;79.61
44979;BME280;67464;52.438;-1.904;2023-02-15T02:05:08;100916.91;;;5.89;76.66
44979;BME280;67464;52.438;-1.904;2023-02-15T02:07:36;100909.64;;;6.32;70.53
44979;BME280;67464;52.438;-1.904;2023-02-15T02:09:59;100904.78;;;6.35;69.69
44979;BME280;67464;52.438;-1.904;2023-02-15T02:12:25;100903.89;;;6.03;70.78
44979;BME280;67464;52.438;-1.904;2023-02-15T02:14:51;100894.76;;;6.51;71.23
44979;BME280;67464;52.438;-1.904;2023-02-15T02:17:18;100895.41;;;6.40;70.47
44979;BME280;67464;52.438;-1.904;2023-02-15T02:19:57;100893.08;;;6.16;69.41
44979;BME280;67464;52.438;-1.904;2023-02-15T02:22:18;100891.26;;;6.27;70.68
44979;BME280;67464;52.438;-1.904;2023-02-15T02:24:47;100882.20;;;3.79;74.55
44979;BME280;67464;52.438;-1.904;2023-02-15T02:29:37;100868.52;;;4.87;82.04
44979;BME280;67464;52.438;-1.904;2023-02-15T02:32:07;100869.13;;;5.11;76.59
44979;BME280;67464;52.438;-1.904;2023-02-15T02:34:16;100862.27;;;5.33;76.73
44979;BME280;67464;52.438;-1.904;2023-02-15T02:36:44;100858.02;;;5.59;72.46
44979;BME280;67464;52.438;-1.904;2023-02-15T02:39:19;100851.80;;;5.88;74.98
44979;BME280;67464;52.438;-1.904;2023-02-15T02:41:35;100846.60;;;6.05;70.21
44979;BME280;67464;52.438;-1.904;2023-02-15T02:44:01;100839.35;;;6.11;70.17
44979;BME280;67464;52.438;-1.904;2023-02-15T02:46:24;100834.87;;;6.26;69.91
44979;BME280;67464;52.438;-1.904;2023-02-15T02:48:46;100833.38;;;6.25;69.52
44979;BME280;67464;52.438;-1.904;2023-02-15T02:51:11;100827.24;;;6.06;67.63
44979;BME280;67464;52.438;-1.904;2023-02-15T02:53:37;100822.56;;;5.79;68.14
44979;BME280;67464;52.438;-1.904;2023-02-15T02:56:06;100820.30;;;5.64;72.41
44979;BME280;67464;52.438;-1.904;2023-02-15T02:58:33;100814.26;;;5.47;73.31
44979;BME280;67464;52.438;-1.904;2023-02-15T03:00:56;100809.19;;;4.86;76.52
44979;BME280;67464;52.438;-1.904;2023-02-15T03:03:25;100804.16;;;4.09;81.17
44979;BME280;67464;52.438;-1.904;2023-02-15T03:05:47;100805.96;;;4.47;83.36
44979;BME280;67464;52.438;-1.904;2023-02-15T03:08:11;100808.32;;;5.11;81.08
44979;BME280;67464;52.438;-1.904;2023-02-15T03:10:37;100802.67;;;5.55;77.71
44979;BME280;67464;52.438;-1.904;2023-02-15T03:13:02;100795.31;;;6.22;74.83
44979;BME280;67464;52.438;-1.904;2023-02-15T03:15:30;100785.66;;;5.88;68.45
44979;BME280;67464;52.438;-1.904;2023-02-15T03:17:56;100775.44;;;4.79;74.30
44979;BME280;67464;52.438;-1.904;2023-02-15T03:20:21;100767.13;;;4.16;77.53
44979;BME280;67464;52.438;-1.904;2023-02-15T03:22:46;100761.68;;;4.10;79.95
44979;BME280;67464;52.438;-1.904;2023-02-15T03:25:10;100764.09;;;4.78;74.69
44979;BME280;67464;52.438;-1.904;2023-02-15T03:27:37;100763.88;;;5.20;75.31
44979;BME280;67464;52.438;-1.904;2023-02-15T03:29:59;100762.10;;;5.64;74.38
44979;BME280;67464;52.438;-1.904;2023-02-15T03:32:26;100757.96;;;5.91;70.05
44979;BME280;67464;52.438;-1.904;2023-02-15T03:34:50;100759.14;;;5.06;73.02
44979;BME280;67464;52.438;-1.904;2023-02-15T03:37:19;100755.23;;;5.76;74.28
44979;BME280;67464;52.438;-1.904;2023-02-15T03:39:45;100751.21;;;5.89;72.88
44979;BME280;67464;52.438;-1.904;2023-02-15T03:42:11;100740.03;;;6.30;72.19
44979;BME280;67464;52.438;-1.904;2023-02-15T03:44:33;100745.46;;;6.11;71.21
44979;BME280;67464;52.438;-1.904;2023-02-15T03:47:02;100746.89;;;6.34;67.34
44979;BME280;67464;52.438;-1.904;2023-02-15T03:49:26;100747.20;;;5.97;66.60
44979;BME280;67464;52.438;-1.904;2023-02-15T03:51:49;100746.12;;;6.11;67.34
44979;BME280;67464;52.438;-1.904;2023-02-15T03:54:15;100752.02;;;5.01;69.77
44979;BME280;67464;52.438;-1.904;2023-02-15T03:56:40;100741.70;;;4.23;74.64
44979;BME280;67464;52.438;-1.904;2023-02-15T03:59:04;100734.05;;;4.09;83.07
44979;BME280;67464;52.438;-1.904;2023-02-15T04:01:34;100732.36;;;4.99;83.38
44979;BME280;67464;52.438;-1.904;2023-02-15T04:03:59;100730.67;;;5.63;77.64
44979;BME280;67464;52.438;-1.904;2023-02-15T04:06:20;100725.86;;;5.77;73.59
44979;BME280;67464;52.438;-1.904;2023-02-15T04:08:46;100727.37;;;5.37;76.61
44979;BME280;67464;52.438;-1.904;2023-02-15T04:11:12;100722.66;;;5.67;74.50
44979;BME280;67464;52.438;-1.904;2023-02-15T04:13:36;100720.14;;;5.57;70.57
44979;BME280;67464;52.438;-1.904;2023-02-15T04:16:03;100713.00;;;5.61;71.07
44979;BME280;67464;52.438;-1.904;2023-02-15T04:18:28;100706.73;;;5.75;71.22
44979;BME280;67464;52.438;-1.904;2023-02-15T04:20:53;100704.68;;;6.51;69.00
44979;BME280;67464;52.438;-1.904;2023-02-15T04:23:18;100701.94;;;6.26;64.43
44979;BME280;67464;52.438;-1.904;2023-02-15T04:25:44;100698.00;;;6.39;66.80
44979;BME280;67464;52.438;-1.904;2023-02-15T04:28:09;100701.69;;;6.29;68.31
44979;BME280;67464;52.438;-1.904;2023-02-15T04:30:34;100702.51;;;6.24;69.55
44979;BME280;67464;52.438;-1.904;2023-02-15T04:33:00;100700.55;;;6.39;68.32
44979;BME280;67464;52.438;-1.904;2023-02-15T04:35:25;100700.53;;;6.36;67.16
44979;BME280;67464;52.438;-1.904;2023-02-15T04:37:50;100696.57;;;5.78;64.53
44979;BME280;67464;52.438;-1.904;2023-02-15T04:40:17;100697.50;;;4.99;69.28
44979;BME280;67464;52.438;-1.904;2023-02-15T04:42:42;100690.45;;;5.14;72.38
44979;BME280;67464;52.438;-1.904;2023-02-15T04:45:07;100687.55;;;5.17;71.49
44979;BME280;67464;52.438;-1.904;2023-02-15T04:47:32;100689.03;;;4.33;76.80
44979;BME280;67464;52.438;-1.904;2023-02-15T04:49:58;100683.65;;;5.19;76.19
44979;BME280;67464;52.438;-1.904;2023-02-15T04:52:23;100679.74;;;3.91;80.89
44979;BME280;67464;52.438;-1.904;2023-02-15T04:54:48;100678.72;;;4.71;80.80
44979;BME280;67464;52.438;-1.904;2023-02-15T04:57:13;100677.77;;;4.98;78.82
44979;BME280;67464;52.438;-1.904;2023-02-15T04:59:39;100677.09;;;5.26;77.52
44979;BME280;67464;52.438;-1.904;2023-02-15T05:02:04;100669.59;;;5.66;74.09
44979;BME280;67464;52.438;-1.904;2023-02-15T05:04:30;100671.91;;;5.17;75.45
44979;BME280;67464;52.438;-1.904;2023-02-15T05:06:56;100673.43;;;4.37;78.46
44979;BME280;67464;52.438;-1.904;2023-02-15T05:09:22;100671.80;;;5.54;77.07
44979;BME280;67464;52.438;-1.904;2023-02-15T05:11:47;100676.56;;;5.12;73.70
44979;BME280;67464;52.438;-1.904;2023-02-15T05:14:13;100673.87;;;5.69;71.27
44979;BME280;67464;52.438;-1.904;2023-02-15T05:16:38;100664.59;;;5.66;71.74
44979;BME280;67464;52.438;-1.904;2023-02-15T05:19:04;100669.81;;;5.05;70.91
44979;BME280;67464;52.438;-1.904;2023-02-15T05:21:31;100668.79;;;4.92;73.08
44979;BME280;67464;52.438;-1.904;2023-02-15T05:23:55;100665.77;;;5.15;71.12
44979;BME280;67464;52.438;-1.904;2023-02-15T05:26:23;100663.48;;;4.30;77.16
44979;BME280;67464;52.438;-1.904;2023-02-15T05:28:47;100662.24;;;4.23;76.24
44979;BME280;67464;52.438;-1.904;2023-02-15T05:31:14;100656.89;;;4.91;78.31
44979;BME280;67464;52.438;-1.904;2023-02-15T05:33:39;100647.19;;;4.86;77.29
44979;BME280;67464;52.438;-1.904;2023-02-15T05:36:05;100651.06;;;3.42;82.58
44979;BME280;67464;52.438;-1.904;2023-02-15T05:38:30;100646.38;;;3.85;81.44
44979;BME280;67464;52.438;-1.904;2023-02-15T05:40:56;100639.50;;;4.99;81.13
44979;BME280;67464;52.438;-1.904;2023-02-15T05:43:21;100628.33;;;5.27;76.74
44979;BME280;67464;52.438;-1.904;2023-02-15T05:45:46;100635.04;;;5.19;76.32
44979;BME280;67464;52.438;-1.904;2023-02-15T05:48:11;100635.86;;;5.22;73.96
44979;BME280;67464;52.438;-1.904;2023-02-15T05:50:37;100641.99;;;5.31;70.05
44979;BME280;67464;52.438;-1.904;2023-02-15T05:53:02;100653.35;;;5.06;70.85
44979;BME280;67464;52.438;-1.904;2023-02-15T05:55:27;100646.75;;;5.18;72.72
44979;BME280;67464;52.438;-1.904;2023-02-15T05:57:53;100657.69;;;5.05;68.60
44979;BME280;67464;52.438;-1.904;2023-02-15T06:00:19;100663.01;;;5.15;70.51
44979;BME280;67464;52.438;-1.904;2023-02-15T06:02:45;100660.78;;;4.66;71.29
44979;BME280;67464;52.438;-1.904;2023-02-15T06:05:09;100652.60;;;5.23;71.85
44979;BME280;67464;52.438;-1.904;2023-02-15T06:07:35;100656.01;;;5.63;72.79
44979;BME280;67464;52.438;-1.904;2023-02-15T06:10:00;100658.88;;;5.28;69.77
44979;BME280;67464;52.438;-1.904;2023-02-15T06:12:26;100656.72;;;5.74;69.37
44979;BME280;67464;52.438;-1.904;2023-02-15T06:14:51;100650.16;;;5.80;69.30
44979;BME280;67464;52.438;-1.904;2023-02-15T06:17:17;100649.66;;;5.25;69.21
44979;BME280;67464;52.438;-1.904;2023-02-15T06:19:43;100657.60;;;4.91;69.76
44979;BME280;67464;52.438;-1.904;2023-02-15T06:22:08;100656.78;;;5.10;69.17
44979;BME280;67464;52.438;-1.904;2023-02-15T06:24:33;100657.66;;;5.32;70.22
44979;BME280;67464;52.438;-1.904;2023-02-15T06:26:59;100657.36;;;5.30;70.86
44979;BME280;67464;52.438;-1.904;2023-02-15T06:29:24;100655.49;;;5.50;68.77
44979;BME280;67464;52.438;-1.904;2023-02-15T06:31:50;100657.23;;;5.65;68.39
44979;BME280;67464;52.438;-1.904;2023-02-15T06:34:15;100650.99;;;5.10;66.01
44979;BME280;67464;52.438;-1.904;2023-02-15T06:36:41;100649.04;;;5.22;70.63
44979;BME280;67464;52.438;-1.904;2023-02-15T06:39:06;100653.24;;;5.06;68.84
44979;BME280;67464;52.438;-1.904;2023-02-15T06:41:31;100652.60;;;4.64;69.07
44979;BME280;67464;52.438;-1.904;2023-02-15T06:43:57;100649.37;;;4.32;76.96
44979;BME280;67464;52.438;-1.904;2023-02-15T06:46:22;100652.40;;;4.14;78.53
44979;BME280;67464;52.438;-1.904;2023-02-15T06:48:47;100650.02;;;5.00;79.16
44979;BME280;67464;52.438;-1.904;2023-02-15T06:51:13;100645.50;;;4.63;78.40
44979;BME280;67464;52.438;-1.904;2023-02-15T06:53:38;100643.83;;;4.57;70.85
44979;BME280;67464;52.438;-1.904;2023-02-15T06:56:05;100638.13;;;5.48;70.93
44979;BME280;67464;52.438;-1.904;2023-02-15T06:58:29;100638.36;;;5.06;71.53
44979;BME280;67464;52.438;-1.904;2023-02-15T07:00:55;100646.04;;;5.08;71.68
44979;BME280;67464;52.438;-1.904;2023-02-15T07:03:20;100640.17;;;5.34;71.59
44979;BME280;67464;52.438;-1.904;2023-02-15T07:05:45;100645.33;;;4.30;72.81
44979;BME280;67464;52.438;-1.904;2023-02-15T07:08:10;100644.46;;;4.90;70.96
44979;BME280;67464;52.438;-1.904;2023-02-15T07:10:36;100637.38;;;5.36;70.15
44979;BME280;67464;52.438;-1.904;2023-02-15T07:13:01;100641.10;;;4.79;69.89
44979;BME280;67464;52.438;-1.904;2023-02-15T07:15:27;100632.65;;;5.22;69.65
44979;BME280;67464;52.438;-1.904;2023-02-15T07:17:52;100636.55;;;4.50;73.69
44979;BME280;67464;52.438;-1.904;2023-02-15T07:20:20;100636.10;;;4.75;74.33
44979;BME280;67464;52.438;-1.904;2023-02-15T07:22:44;100636.62;;;4.31;73.80
44979;BME280;67464;52.438;-1.904;2023-02-15T07:25:11;100644.93;;;4.66;74.41
44979;BME280;67464;52.438;-1.904;2023-02-15T07:27:35;100653.83;;;5.13;71.93
44979;BME280;67464;52.438;-1.904;2023-02-15T07:30:02;100649.27;;;5.55;67.36
44979;BME280;67464;52.438;-1.904;2023-02-15T07:32:28;100648.18;;;5.34;66.46
44979;BME280;67464;52.438;-1.904;2023-02-15T07:34:52;100660.56;;;4.37;70.58
44979;BME280;67464;52.438;-1.904;2023-02-15T07:37:17;100653.74;;;4.65;75.31
44979;BME280;67464;52.438;-1.904;2023-02-15T07:39:42;100652.67;;;4.54;73.86
44979;BME280;67464;52.438;-1.904;2023-02-15T07:42:07;100644.18;;;4.76;72.38
44979;BME280;67464;52.438;-1.904;2023-02-15T07:44:33;100644.10;;;4.88;74.00
44979;BME280;67464;52.438;-1.904;2023-02-15T07:46:58;100639.91;;;5.15;66.70
44979;BME280;67464;52.438;-1.904;2023-02-15T07:49:25;100649.12;;;4.89;68.74
44979;BME280;67464;52.438;-1.904;2023-02-15T07:51:50;100646.01;;;4.97;71.59
44979;BME280;67464;52.438;-1.904;2023-02-15T07:54:15;100634.42;;;3.96;71.41
44979;BME280;67464;52.438;-1.904;2023-02-15T07:56:40;100629.70;;;2.73;81.44
44979;BME280;67464;52.438;-1.904;2023-02-15T07:59:06;100627.38;;;3.51;82.09
44979;BME280;67464;52.438;-1.904;2023-02-15T08:01:34;100627.59;;;4.33;81.64
44979;BME280;67464;52.438;-1.904;2023-02-15T08:03:58;100619.60;;;5.35;75.25
44979;BME280;67464;52.438;-1.904;2023-02-15T08:06:25;100620.65;;;5.79;69.39
44979;BME280;67464;52.438;-1.904;2023-02-15T08:08:48;100619.80;;;5.74;68.15
44979;BME280;67464;52.438;-1.904;2023-02-15T08:11:16;100627.18;;;5.97;67.72
44979;BME280;67464;52.438;-1.904;2023-02-15T08:13:39;100625.70;;;5.30;68.96
44979;BME280;67464;52.438;-1.904;2023-02-15T08:16:04;100626.32;;;5.66;68.24
44979;BME280;67464;52.438;-1.904;2023-02-15T08:18:29;100628.07;;;4.96;65.61
44979;BME280;67464;52.438;-1.904;2023-02-15T08:20:54;100623.66;;;4.68;66.72
44979;BME280;67464;52.438;-1.904;2023-02-15T08:23:20;100619.29;;;4.60;70.00
44979;BME280;67464;52.438;-1.904;2023-02-15T08:25:46;100613.19;;;5.25;72.80
44979;BME280;67464;52.438;-1.904;2023-02-15T08:28:12;100613.00;;;5.43;70.12
44979;BME280;67464;52.438;-1.904;2023-02-15T08:30:38;100611.00;;;7.32;62.08
44979;BME280;67464;52.438;-1.904;2023-02-15T08:33:03;100611.76;;;8.15;59.13
44979;BME280;67464;52.438;-1.904;2023-02-15T08:35:28;100603.03;;;9.85;53.62
44979;BME280;67464;52.438;-1.904;2023-02-15T08:37:53;100606.04;;;11.45;48.80
44979;BME280;67464;52.438;-1.904;2023-02-15T08:40:19;100611.32;;;12.65;45.47
44979;BME280;67464;52.438;-1.904;2023-02-15T08:42:44;100596.06;;;13.58;43.54
44979;BME280;67464;52.438;-1.904;2023-02-15T08:45:10;100599.34;;;14.24;42.36
44979;BME280;67464;52.438;-1.904;2023-02-15T08:47:35;100601.69;;;14.72;39.59
44979;BME280;67464;52.438;-1.904;2023-02-15T08:50:01;100606.93;;;14.67;40.58
44979;BME280;67464;52.438;-1.904;2023-02-15T08:52:27;100602.55;;;13.97;39.74
44979;BME280;67464;52.438;-1.904;2023-02-15T08:54:51;100595.19;;;14.00;40.48
44979;BME280;67464;52.438;-1.904;2023-02-15T08:57:17;100591.22;;;14.72;39.67
44979;BME280;67464;52.438;-1.904;2023-02-15T08:59:42;100594.04;;;16.67;40.18
44979;BME280;67464;52.438;-1.904;2023-02-15T09:02:09;100598.30;;;17.05;37.61
44979;BME280;67464;52.438;-1.904;2023-02-15T09:04:33;100591.16;;;15.44;37.73
44979;BME280;67464;52.438;-1.904;2023-02-15T09:06:59;100579.63;;;15.95;38.62
44979;BME280;67464;52.438;-1.904;2023-02-15T09:09:24;100576.74;;;15.55;39.80
44979;BME280;67464;52.438;-1.904;2023-02-15T09:11:51;100584.77;;;16.31;39.05
44979;BME280;67464;52.438;-1.904;2023-02-15T09:14:17;100576.70;;;16.30;38.56
44979;BME280;67464;52.438;-1.904;2023-02-15T09:16:44;100581.43;;;15.24;40.29
44979;BME280;67464;52.438;-1.904;2023-02-15T09:19:06;100585.33;;;14.70;42.44
44979;BME280;67464;52.438;-1.904;2023-02-15T09:21:32;100581.09;;;14.83;40.53
44979;BME280;67464;52.438;-1.904;2023-02-15T09:23:59;100567.14;;;15.64;41.18
44979;BME280;67464;52.438;-1.904;2023-02-15T09:26:23;100576.16;;;13.95;41.62
44979;BME280;67464;52.438;-1.904;2023-02-15T09:28:51;100567.53;;;13.05;45.11
44979;BME280;67464;52.438;-1.904;2023-02-15T09:31:15;100564.83;;;10.34;49.01
44979;BME280;67464;52.438;-1.904;2023-02-15T09:33:39;100561.76;;;11.73;50.42
44979;BME280;67464;52.438;-1.904;2023-02-15T09:36:05;100566.83;;;9.91;56.45
44979;BME280;67464;52.438;-1.904;2023-02-15T09:38:30;100564.20;;;10.62;58.27
44979;BME280;67464;52.438;-1.904;2023-02-15T09:41:05;100557.95;;;12.36;51.06
44979;BME280;67464;52.438;-1.904;2023-02-15T09:43:30;100557.74;;;12.20;50.25
44979;BME280;67464;52.438;-1.904;2023-02-15T09:45:58;100557.78;;;11.74;51.83
44979;BME280;67464;52.438;-1.904;2023-02-15T09:48:25;100546.06;;;9.74;58.92
44979;BME280;67464;52.438;-1.904;2023-02-15T09:50:43;100553.35;;;12.19;54.17
44979;BME280;67464;52.438;-1.904;2023-02-15T09:53:15;100553.74;;;11.87;51.40
44979;BME280;67464;52.438;-1.904;2023-02-15T09:55:41;100555.20;;;12.56;54.22
44979;BME280;67464;52.438;-1.904;2023-02-15T09:58:00;100562.94;;;12.00;52.13
44979;BME280;67464;52.438;-1.904;2023-02-15T10:00:25;100557.55;;;12.66;51.03
44979;BME280;67464;52.438;-1.904;2023-02-15T10:02:56;100562.42;;;11.76;55.11
44979;BME280;67464;52.438;-1.904;2023-02-15T10:05:20;100550.51;;;10.85;57.81
44979;BME280;67464;52.438;-1.904;2023-02-15T10:07:49;100546.86;;;11.50;59.90
44979;BME280;67464;52.438;-1.904;2023-02-15T10:10:09;100551.78;;;10.31;62.09
44979;BME280;67464;52.438;-1.904;2023-02-15T10:12:36;100555.12;;;11.04;61.10
44979;BME280;67464;52.438;-1.904;2023-02-15T10:15:00;100571.42;;;12.90;55.65
44979;BME280;67464;52.438;-1.904;2023-02-15T10:17:26;100572.05;;;12.28;56.84
44979;BME280;67464;52.438;-1.904;2023-02-15T10:19:45;100567.68;;;12.50;52.63
44979;BME280;67464;52.438;-1.904;2023-02-15T10:22:17;100563.02;;;11.49;56.38
44979;BME280;67464;52.438;-1.904;2023-02-15T10:24:42;100563.88;;;10.32;62.22
44979;BME280;67464;52.438;-1.904;2023-02-15T10:27:02;100559.65;;;10.47;65.25
44979;BME280;67464;52.438;-1.904;2023-02-15T10:29:30;100569.03;;;10.37;64.45
44979;BME280;67464;52.438;-1.904;2023-02-15T10:31:51;100563.03;;;11.35;61.79
44979;BME280;67464;52.438;-1.904;2023-02-15T10:34:16;100560.91;;;12.58;55.18
44979;BME280;67464;52.438;-1.904;2023-02-15T10:36:53;100556.06;;;13.38;54.35
44979;BME280;67464;52.438;-1.904;2023-02-15T10:39:10;100565.06;;;13.99;49.02
44979;BME280;67464;52.438;-1.904;2023-02-15T10:41:39;100562.95;;;12.92;52.79
44979;BME280;67464;52.438;-1.904;2023-02-15T10:44:08;100569.18;;;11.88;55.56
44979;BME280;67464;52.438;-1.904;2023-02-15T10:46:37;100562.98;;;13.37;53.03
44979;BME280;67464;52.438;-1.904;2023-02-15T10:49:00;100574.09;;;12.46;55.80
44979;BME280;67464;52.438;-1.904;2023-02-15T10:51:18;100562.35;;;13.76;52.21
44979;BME280;67464;52.438;-1.904;2023-02-15T10:53:51;100561.16;;;13.31;50.38
44979;BME280;67464;52.438;-1.904;2023-02-15T10:56:12;100561.71;;;13.86;49.94
44979;BME280;67464;52.438;-1.904;2023-02-15T10:58:40;100568.98;;;11.85;55.85
44979;BME280;67464;52.438;-1.904;2023-02-15T11:01:01;100578.60;;;13.24;52.74
44979;BME280;67464;52.438;-1.904;2023-02-15T11:03:33;100573.79;;;13.32;51.72
44979;BME280;67464;52.438;-1.904;2023-02-15T11:05:53;100572.67;;;11.79;54.93
44979;BME280;67464;52.438;-1.904;2023-02-15T11:08:12;100566.22;;;11.99;55.32
44979;BME280;67464;52.438;-1.904;2023-02-15T11:10:40;100562.79;;;12.52;55.90
44979;BME280;67464;52.438;-1.904;2023-02-15T11:13:09;100556.42;;;12.20;54.87
44979;BME280;67464;52.438;-1.904;2023-02-15T11:15:31;100553.26;;;13.13;54.00
44979;BME280;67464;52.438;-1.904;2023-02-15T11:17:58;100559.02;;;13.38;51.92
44979;BME280;67464;52.438;-1.904;2023-02-15T11:20:24;100563.86;;;12.76;53.14
44979;BME280;67464;52.438;-1.904;2023-02-15T11:22:48;100577.29;;;12.41;53.45
44979;BME280;67464;52.438;-1.904;2023-02-15T11:25:18;100564.26;;;13.20;51.92
44979;BME280;67464;52.438;-1.904;2023-02-15T11:27:36;100573.96;;;12.39;52.80
44979;BME280;67464;52.438;-1.904;2023-02-15T11:30:03;100565.18;;;12.76;52.31
44979;BME280;67464;52.438;-1.904;2023-02-15T11:32:29;100579.84;;;12.05;53.92
44979;BME280;67464;52.438;-1.904;2023-02-15T11:34:54;100577.13;;;12.52;55.64
44979;BME280;67464;52.438;-1.904;2023-02-15T11:37:20;100577.45;;;12.18;54.87
44979;BME280;67464;52.438;-1.904;2023-02-15T11:39:43;100573.24;;;12.83;53.52
44979;BME280;67464;52.438;-1.904;2023-02-15T11:42:12;100574.62;;;12.17;54.68
44979;BME280;67464;52.438;-1.904;2023-02-15T11:44:36;100560.48;;;13.45;52.28
44979;BME280;67464;52.438;-1.904;2023-02-15T11:46:59;100567.50;;;12.98;53.64
44979;BME280;67464;52.438;-1.904;2023-02-15T11:49:29;100561.20;;;13.39;53.63
44979;BME280;67464;52.438;-1.904;2023-02-15T11:51:50;100565.63;;;13.50;51.31
44979;BME280;67464;52.438;-1.904;2023-02-15T11:54:17;100571.65;;;12.42;54.53
44979;BME280;67464;52.438;-1.904;2023-02-15T11:56:42;100566.27;;;13.17;52.86
44979;BME280;67464;52.438;-1.904;2023-02-15T11:59:11;100575.73;;;12.42;53.50
44979;BME280;67464;52.438;-1.904;2023-02-15T12:01:36;100561.46;;;13.17;53.49
44979;BME280;67464;52.438;-1.904;2023-02-15T12:04:01;100561.28;;;11.63;56.36
44979;BME280;67464;52.438;-1.904;2023-02-15T12:06:27;100559.46;;;10.99;62.11
44979;BME280;67464;52.438;-1.904;2023-02-15T12:08:55;100560.01;;;10.14;68.07
44979;BME280;67464;52.438;-1.904;2023-02-15T12:11:18;100548.12;;;10.92;68.90
44979;BME280;67464;52.438;-1.904;2023-02-15T12:16:09;100536.95;;;11.09;67.12
44979;BME280;67464;52.438;-1.904;2023-02-15T12:18:36;100525.71;;;11.39;67.08
44979;BME280;67464;52.438;-1.904;2023-02-15T12:20:58;100526.89;;;12.18;61.17
44979;BME280;67464;52.438;-1.904;2023-02-15T12:23:21;100516.60;;;13.17;56.29
44979;BME280;67464;52.438;-1.904;2023-02-15T12:25:51;100527.17;;;12.82;55.49
44979;BME280;67464;52.438;-1.904;2023-02-15T12:28:24;100516.80;;;13.49;53.30
44979;BME280;67464;52.438;-1.904;2023-02-15T12:30:38;100508.42;;;13.97;52.09
44979;BME280;67464;52.438;-1.904;2023-02-15T12:33:07;100518.44;;;14.62;49.04
44979;BME280;67464;52.438;-1.904;2023-02-15T12:35:30;100518.29;;;13.71;50.80
44979;BME280;67464;52.438;-1.904;2023-02-15T12:37:56;100516.83;;;13.89;52.27
44979;BME280;67464;52.438;-1.904;2023-02-15T12:40:22;100512.65;;;12.81;55.11
44979;BME280;67464;52.438;-1.904;2023-02-15T12:42:45;100516.17;;;13.76;52.78